Kota Kinabalu International Airport
WBKK : now visible

Airfield :











YOU CAN JOIN US ON...

 
LOGIN :

Register | Disclaimer

   EN    FR    IT 

 









Legend :    VFR   Marginal VFR   IFR   Intensive IFR   Very Intensive IFR
Visi :
Ceiling :
>= 8 km
>= 3000ft
5 to 8 km
1000 to 3000 ft
1500m to 5 km
500 to 1000 ft
800 to 1500m
200 to 500 ft
< 800m
< 200 ft
Symbols :   Thunderstorms  Fog  Heavy snow  Heavy precipitations  Wind > 20 kt






- Airport Elevation : 10 ft
- IATA code : BKI


WBKK - Kota Kinabalu International

CURRENT METAR :
  • 291300Z 13006KT 100V190 9999 FEW014 28/25 Q1007 NOSIG

EXPIRED METARs :
  • 291230Z VRB03KT 9999 FEW014 FEW016CB 29/25 Q1007 NOSIG
  • 291200Z VRB03KT 9999 FEW014 FEW016CB 29/25 Q1007 NOSIG
  • 291130Z VRB03KT 9999 FEW014 FEW016CB 29/25 Q1006 NOSIG
  • 291100Z VRB04KT 9999 FEW014 FEW016CB 29/25 Q1006 NOSIG
  • 291030Z VRB04KT 9999 FEW014 FEW016CB 30/26 Q1005 NOSIG

TAF TAF WBKK
Valid from the 29 at 12:00 until the 30 at 12:00 UTC


291100Z 2912/3012 12005KT 9999 FEW014
BECMG 3000/3002 22005KT
PROB30
TEMPO 3006/3010 5000 TSRA FEW010 FEW016CB SCT040
WBFC FIR / Asia



MET'MAP, your aeronautical weather chart ! - Copyright ORBIFLY December 2007 - Disclaimer

ORBIFLY MET'MAP TEAM :

Programming & Development : Alexandra Zaïnal
Original concept : Baudouin d'Aumeries
Technical & hardware support : Manuel Goepfert
Assistance : Marc-Olivier Méhu




SOURCES & CREDITS :

   NOAA       Earth
Advisory